createdAt,value
2019-04-26T00:00:28.143Z,17.83
2019-04-26T00:05:35.464Z,19.13
2019-04-26T00:10:40.896Z,18.57
2019-04-26T00:15:50.075Z,19.33
2019-04-26T00:20:54.810Z,15.83
2019-04-26T00:25:59.483Z,15.90
2019-04-26T00:31:04.052Z,16.43
2019-04-26T00:36:08.662Z,14.90
2019-04-26T00:41:14.107Z,18.10
2019-04-26T00:46:20.924Z,20.50
2019-04-26T00:51:25.634Z,19.13
2019-04-26T00:56:31.155Z,21.67
2019-04-26T01:01:37.787Z,15.83
2019-04-26T01:06:43.952Z,20.77
2019-04-26T01:11:48.508Z,18.70
2019-04-26T01:16:52.998Z,16.30
2019-04-26T01:22:00.559Z,11.33
2019-04-26T01:27:06.556Z,24.83
2019-04-26T01:32:12.851Z,19.93
2019-04-26T01:37:19.182Z,15.97
2019-04-26T01:42:28.805Z,21.63
2019-04-26T01:47:33.610Z,19.33
2019-04-26T01:52:38.402Z,16.70
2019-04-26T01:57:43.510Z,15.57
2019-04-26T02:02:58.286Z,17.97
2019-04-26T02:08:04.222Z,17.17
2019-04-26T02:13:08.708Z,18.37
2019-04-26T02:18:13.180Z,19.53
2019-04-26T02:23:37.645Z,20.93
2019-04-26T02:28:42.494Z,19.07
2019-04-26T02:33:47.022Z,14.20
2019-04-26T02:38:54.651Z,15.63
2019-04-26T02:44:02.168Z,19.17
2019-04-26T02:49:24.585Z,20.27
2019-04-26T02:54:47.119Z,19.23
2019-04-26T02:59:54.641Z,21.33
2019-04-26T03:05:01.589Z,20.60
2019-04-26T03:10:08.948Z,19.83
2019-04-26T03:15:19.117Z,23.10
2019-04-26T03:20:36.326Z,18.77
2019-04-26T03:25:55.564Z,20.83
2019-04-26T03:31:24.307Z,23.83
2019-04-26T03:36:53.351Z,16.43
2019-04-26T03:42:17.497Z,21.23
2019-04-26T03:47:25.179Z,21.53
2019-04-26T03:52:58.317Z,17.37
2019-04-26T03:58:29.715Z,17.73
2019-04-26T04:03:58.037Z,19.93
2019-04-26T04:09:10.007Z,19.70
2019-04-26T04:14:32.391Z,14.10
2019-04-26T04:19:47.519Z,22.37
2019-04-26T04:25:04.274Z,20.33
2019-04-26T04:30:28.431Z,17.77
2019-04-26T04:35:35.998Z,17.80
2019-04-26T04:41:11.977Z,20.00
2019-04-26T04:46:29.866Z,22.40
2019-04-26T04:51:37.570Z,20.77
2019-04-26T04:56:45.727Z,21.53
2019-04-26T05:02:21.833Z,18.67
2019-04-26T05:07:50.175Z,18.80
2019-04-26T05:13:09.572Z,17.80
2019-04-26T05:18:34.888Z,21.50
2019-04-26T05:23:57.749Z,19.80
2019-04-26T05:29:40.354Z,17.67
2019-04-26T05:35:23.084Z,18.90
2019-04-26T05:40:49.483Z,20.10
2019-04-26T05:46:34.201Z,18.40
2019-04-26T05:51:50.885Z,25.63
2019-04-26T05:57:12.096Z,24.03
2019-04-26T06:02:39.512Z,21.40
2019-04-26T06:07:52.241Z,18.00
2019-04-26T06:13:04.764Z,18.67
2019-04-26T06:18:32.725Z,18.97
2019-04-26T06:23:53.822Z,20.40
2019-04-26T06:29:05.347Z,21.23
2019-04-26T06:34:20.072Z,17.33
2019-04-26T06:39:33.291Z,18.70
2019-04-26T06:44:45.620Z,13.53
2019-04-26T06:50:16.220Z,18.53
2019-04-26T06:55:23.824Z,17.60
2019-04-26T07:01:03.564Z,12.80
2019-04-26T07:06:14.240Z,15.33
2019-04-26T07:11:43.140Z,19.03
2019-04-26T07:16:50.702Z,20.07
2019-04-26T07:22:17.785Z,19.50
2019-04-26T07:27:34.168Z,17.40
2019-04-26T07:32:56.936Z,15.80
2019-04-26T07:38:54.742Z,20.53
2019-04-26T07:44:21.571Z,15.27
2019-04-26T07:49:34.747Z,12.57
2019-04-26T07:55:15.847Z,19.10
2019-04-26T08:00:27.868Z,21.33
2019-04-26T08:05:49.143Z,15.23
2019-04-26T08:11:04.570Z,15.87
2019-04-26T08:16:24.838Z,15.53
2019-04-26T08:21:33.569Z,15.47
2019-04-26T08:26:41.295Z,26.77
2019-04-26T08:31:48.942Z,13.60
2019-04-26T08:37:01.755Z,19.13
2019-04-26T08:42:12.062Z,16.90
2019-04-26T08:47:27.596Z,17.73
2019-04-26T08:52:35.474Z,19.90
2019-04-26T08:57:42.582Z,21.17
2019-04-26T09:03:11.692Z,14.43
2019-04-26T09:08:17.846Z,21.87
2019-04-26T09:13:25.198Z,16.50
2019-04-26T09:18:42.079Z,17.63
2019-04-26T09:23:53.065Z,17.93
2019-04-26T09:28:59.345Z,14.83
2019-04-26T09:34:10.428Z,18.90
2019-04-26T09:39:15.900Z,12.70
2019-04-26T09:44:33.950Z,20.43
2019-04-26T09:49:41.170Z,20.27
2019-04-26T09:54:45.986Z,16.00
2019-04-26T09:59:51.853Z,18.07
2019-04-26T10:04:58.036Z,15.70
2019-04-26T10:10:02.785Z,14.93
2019-04-26T10:15:10.103Z,15.37
2019-04-26T10:20:15.192Z,17.32
2019-04-26T10:25:19.997Z,13.00
2019-04-26T10:30:24.860Z,10.70
2019-04-26T10:35:29.538Z,12.23
2019-04-26T10:40:35.629Z,13.60
2019-04-26T10:45:40.634Z,17.20
2019-04-26T10:50:45.254Z,9.87
2019-04-26T10:55:54.267Z,17.47
2019-04-26T11:01:03.686Z,16.33
2019-04-26T11:06:08.208Z,13.93
2019-04-26T11:11:12.897Z,10.67
2019-04-26T11:16:17.506Z,14.43
2019-04-26T11:21:22.470Z,16.10
2019-04-26T11:26:27.124Z,14.95
2019-04-26T11:31:31.837Z,11.50
2019-04-26T11:36:40.116Z,11.85
2019-04-26T11:41:42.681Z,14.13
2019-04-26T11:46:47.324Z,12.33
2019-04-26T11:51:51.763Z,15.50
2019-04-26T11:56:56.265Z,10.03
2019-04-26T12:02:00.783Z,10.98
2019-04-26T12:07:12.855Z,8.73
2019-04-26T12:12:18.839Z,8.38
2019-04-26T12:17:23.372Z,8.90
2019-04-26T12:22:27.903Z,9.90
2019-04-26T12:27:32.507Z,13.53
2019-04-26T12:32:37.041Z,8.20
2019-04-26T12:37:41.644Z,12.47
2019-04-26T12:42:47.335Z,7.55
2019-04-26T12:47:56.329Z,5.72
2019-04-26T12:53:00.923Z,11.75
2019-04-26T12:58:05.981Z,8.30
2019-04-26T13:03:20.285Z,9.10
2019-04-26T13:08:18.805Z,9.58
2019-04-26T13:13:27.748Z,10.40
2019-04-26T13:18:32.468Z,11.12
2019-04-26T13:23:36.911Z,7.80
2019-04-26T13:28:41.401Z,7.95
2019-04-26T13:33:45.977Z,9.40
2019-04-26T13:38:50.413Z,7.58
2019-04-26T13:43:57.147Z,6.22
2019-04-26T13:49:02.904Z,9.58
2019-04-26T13:54:07.464Z,10.48
2019-04-26T13:59:12.008Z,6.78
2019-04-26T14:04:16.477Z,6.67
2019-04-26T14:09:21.017Z,6.65
2019-04-26T14:14:25.546Z,7.87
2019-04-26T14:19:30.107Z,8.78
2019-04-26T14:24:39.381Z,4.45
2019-04-26T14:29:43.927Z,6.75
2019-04-26T14:34:48.477Z,6.35
2019-04-26T14:39:55.284Z,8.45
2019-04-26T14:45:02.198Z,6.47
2019-04-26T14:50:14.247Z,11.65
2019-04-26T14:55:16.662Z,6.65
2019-04-26T15:00:28.735Z,11.03
2019-04-26T15:05:38.140Z,8.75
2019-04-26T15:10:48.800Z,6.15
2019-04-26T15:15:52.577Z,6.15
2019-04-26T15:20:58.700Z,9.10
2019-04-26T15:26:03.399Z,17.77
2019-04-26T15:31:07.859Z,10.65
2019-04-26T15:36:14.526Z,7.72
2019-04-26T15:41:25.712Z,7.85
2019-04-26T15:46:34.405Z,9.20
2019-04-26T15:51:40.484Z,8.73
2019-04-26T15:56:49.316Z,8.88
2019-04-26T16:01:56.108Z,9.65
2019-04-26T16:06:59.609Z,5.92
2019-04-26T16:12:04.535Z,16.53
2019-04-26T16:17:09.333Z,18.73
2019-04-26T16:22:13.958Z,17.13
2019-04-26T16:27:18.600Z,25.40
2019-04-26T16:32:37.555Z,11.20
2019-04-26T16:37:43.690Z,9.73
2019-04-26T16:42:55.117Z,12.20
2019-04-26T16:47:57.243Z,15.23
2019-04-26T16:53:01.703Z,15.70
2019-04-26T16:58:06.260Z,14.37
2019-04-26T17:03:10.879Z,17.17
2019-04-26T17:08:19.177Z,15.60
2019-04-26T17:13:30.083Z,15.30
2019-04-26T17:18:33.577Z,20.43
2019-04-26T17:23:49.517Z,24.20
2019-04-26T17:28:55.558Z,15.40
2019-04-26T17:34:00.486Z,16.57
2019-04-26T17:39:12.531Z,13.23
2019-04-26T17:44:21.365Z,14.77
2019-04-26T17:49:27.245Z,13.40
2019-04-26T17:54:44.116Z,16.90
2019-04-26T17:59:36.844Z,15.37
2019-04-26T18:04:43.022Z,17.80
2019-04-26T18:09:47.237Z,15.70
2019-04-26T18:14:52.560Z,13.30
2019-04-26T18:20:08.856Z,14.00
2019-04-26T18:25:14.719Z,20.13
2019-04-26T18:30:19.452Z,24.43
2019-04-26T18:35:24.213Z,42.47
2019-04-26T18:40:39.000Z,31.90
2019-04-26T18:45:36.834Z,22.87
2019-04-26T18:50:41.351Z,16.40
2019-04-26T18:55:51.100Z,27.33
2019-04-26T19:00:57.430Z,15.27
2019-04-26T19:06:05.547Z,19.03
2019-04-26T19:11:13.042Z,17.67
2019-04-26T19:16:19.689Z,19.50
2019-04-26T19:21:32.290Z,24.03
2019-04-26T19:26:35.309Z,25.87
2019-04-26T19:31:41.268Z,32.77
2019-04-26T19:36:46.643Z,24.13
2019-04-26T19:41:52.025Z,26.80
2019-04-26T19:47:04.966Z,26.03
2019-04-26T19:52:25.243Z,18.60
2019-04-26T19:57:43.314Z,22.60
2019-04-26T20:02:47.820Z,21.93
2019-04-26T20:07:52.478Z,19.80
2019-04-26T20:12:56.934Z,21.90
2019-04-26T20:18:03.706Z,19.90
2019-04-26T20:23:08.073Z,21.47
2019-04-26T20:28:14.100Z,17.60
2019-04-26T20:33:19.836Z,26.23
2019-04-26T20:38:24.455Z,23.73
2019-04-26T20:43:29.048Z,28.40
2019-04-26T20:48:35.251Z,21.07
2019-04-26T20:53:41.766Z,22.23
2019-04-26T20:58:47.359Z,25.43
2019-04-26T21:03:51.990Z,26.40
2019-04-26T21:08:59.059Z,20.63
2019-04-26T21:14:07.497Z,21.73
2019-04-26T21:19:12.802Z,27.27
2019-04-26T21:24:19.922Z,17.57
2019-04-26T21:29:24.452Z,19.67
2019-04-26T21:34:30.675Z,17.60
2019-04-26T21:39:44.198Z,15.47
2019-04-26T21:44:51.279Z,22.47
2019-04-26T21:49:58.785Z,15.60
2019-04-26T21:54:59.329Z,30.43
2019-04-26T22:00:06.826Z,22.63
2019-04-26T22:05:15.003Z,19.93
2019-04-26T22:10:26.846Z,27.70
2019-04-26T22:15:41.639Z,24.03
2019-04-26T22:20:54.036Z,21.60
2019-04-26T22:26:00.221Z,11.40
2019-04-26T22:31:13.099Z,13.53
2019-04-26T22:36:18.710Z,6.57
2019-04-26T22:41:24.369Z,8.13
2019-04-26T22:46:44.472Z,8.30
2019-04-26T22:51:37.307Z,6.37
2019-04-26T22:56:43.874Z,10.27
2019-04-26T23:01:48.955Z,7.07
2019-04-26T23:06:56.141Z,7.67
2019-04-26T23:12:04.065Z,11.73
2019-04-26T23:17:19.753Z,10.97
2019-04-26T23:22:30.766Z,16.40
2019-04-26T23:27:30.578Z,10.33
2019-04-26T23:32:35.013Z,10.77
2019-04-26T23:37:39.461Z,15.63
2019-04-26T23:42:47.546Z,14.93
2019-04-26T23:47:52.905Z,15.07
2019-04-26T23:52:57.592Z,15.40
2019-04-26T23:58:04.944Z,12.43
